Terminal Aerodrome Forecast
Issued by NWS Kansas City/Pleasant Hill, MO

Home | Current Version | Previous Version | Text Only | Print | Product List | Glossary On
Versions: 1 2 3 4 5 6 7 8 9 10 11 12 13 14 15 16
807
FTUS43 KEAX 090524
TAFMCI
TAF
KMCI 090524Z 0906/1006 31005KT P6SM BKN150
     FM091400 33015G25KT P6SM SCT100
     FM100200 33010KT P6SM BKN080=

USA.gov is the U.S. government's official web portal to all federal, state and local government web resources and services.